sensor_id;sensor_type;location;lat;lon;timestamp;pressure;altitude;pressure_sealevel;temperature;humidity
76406;BME280;65234;50.044;19.258;2022-12-11T00:01:25;97541.53;;;-0.03;100.00
76406;BME280;65234;50.044;19.258;2022-12-11T00:03:51;97542.31;;;-0.02;100.00
76406;BME280;65234;50.044;19.258;2022-12-11T00:06:19;97529.84;;;-0.03;100.00
76406;BME280;65234;50.044;19.258;2022-12-11T00:08:47;97532.66;;;0.00;100.00
76406;BME280;65234;50.044;19.258;2022-12-11T00:11:15;97522.69;;;0.08;100.00
76406;BME280;65234;50.044;19.258;2022-12-11T00:13:41;97516.38;;;0.04;100.00
76406;BME280;65234;50.044;19.258;2022-12-11T00:16:08;97514.09;;;0.06;100.00
76406;BME280;65234;50.044;19.258;2022-12-11T00:18:34;97518.28;;;0.00;100.00
76406;BME280;65234;50.044;19.258;2022-12-11T00:21:01;97517.09;;;0.01;100.00
76406;BME280;65234;50.044;19.258;2022-12-11T00:23:28;97507.53;;;0.07;100.00
76406;BME280;65234;50.044;19.258;2022-12-11T00:25:55;97507.44;;;0.04;100.00
76406;BME280;65234;50.044;19.258;2022-12-11T00:28:21;97509.00;;;0.05;100.00
76406;BME280;65234;50.044;19.258;2022-12-11T00:30:47;97503.22;;;0.06;100.00
76406;BME280;65234;50.044;19.258;2022-12-11T00:33:13;97488.22;;;-0.04;100.00
76406;BME280;65234;50.044;19.258;2022-12-11T00:35:41;97497.63;;;-0.01;100.00
76406;BME280;65234;50.044;19.258;2022-12-11T00:38:07;97493.31;;;-0.02;100.00
76406;BME280;65234;50.044;19.258;2022-12-11T00:40:33;97496.50;;;0.00;100.00
76406;BME280;65234;50.044;19.258;2022-12-11T00:43:00;97492.81;;;-0.08;100.00
76406;BME280;65234;50.044;19.258;2022-12-11T00:45:26;97493.25;;;-0.06;100.00
76406;BME280;65234;50.044;19.258;2022-12-11T00:47:51;97491.75;;;-0.03;100.00
76406;BME280;65234;50.044;19.258;2022-12-11T00:50:17;97486.75;;;-0.01;100.00
76406;BME280;65234;50.044;19.258;2022-12-11T00:52:43;97490.31;;;0.03;100.00
76406;BME280;65234;50.044;19.258;2022-12-11T00:55:09;97482.44;;;-0.02;100.00
76406;BME280;65234;50.044;19.258;2022-12-11T00:57:35;97489.47;;;-0.01;100.00
76406;BME280;65234;50.044;19.258;2022-12-11T01:00:03;97488.31;;;0.00;100.00
76406;BME280;65234;50.044;19.258;2022-12-11T01:02:29;97486.03;;;0.02;100.00
76406;BME280;65234;50.044;19.258;2022-12-11T01:04:55;97493.06;;;0.03;100.00
76406;BME280;65234;50.044;19.258;2022-12-11T01:07:20;97489.88;;;0.01;100.00
76406;BME280;65234;50.044;19.258;2022-12-11T01:09:46;97491.06;;;0.00;100.00
76406;BME280;65234;50.044;19.258;2022-12-11T01:12:12;97496.06;;;-0.02;100.00
76406;BME280;65234;50.044;19.258;2022-12-11T01:14:38;97501.34;;;-0.09;100.00
76406;BME280;65234;50.044;19.258;2022-12-11T01:17:05;97495.13;;;-0.10;100.00
76406;BME280;65234;50.044;19.258;2022-12-11T01:19:30;97492.06;;;-0.08;100.00
76406;BME280;65234;50.044;19.258;2022-12-11T01:21:56;97486.16;;;-0.10;100.00
76406;BME280;65234;50.044;19.258;2022-12-11T01:24:22;97483.38;;;-0.14;100.00
76406;BME280;65234;50.044;19.258;2022-12-11T01:26:47;97480.66;;;-0.14;100.00
76406;BME280;65234;50.044;19.258;2022-12-11T01:29:14;97484.91;;;-0.16;100.00
76406;BME280;65234;50.044;19.258;2022-12-11T01:31:40;97474.69;;;-0.19;100.00
76406;BME280;65234;50.044;19.258;2022-12-11T01:34:07;97472.44;;;-0.17;100.00
76406;BME280;65234;50.044;19.258;2022-12-11T01:36:33;97471.28;;;-0.16;100.00
76406;BME280;65234;50.044;19.258;2022-12-11T01:38:59;97467.25;;;-0.22;100.00
76406;BME280;65234;50.044;19.258;2022-12-11T01:41:24;97471.56;;;-0.21;100.00
76406;BME280;65234;50.044;19.258;2022-12-11T01:43:58;97471.13;;;-0.23;100.00
76406;BME280;65234;50.044;19.258;2022-12-11T01:46:25;97469.91;;;-0.26;100.00
76406;BME280;65234;50.044;19.258;2022-12-11T01:48:51;97468.41;;;-0.23;100.00
76406;BME280;65234;50.044;19.258;2022-12-11T01:51:19;97470.06;;;-0.19;100.00
76406;BME280;65234;50.044;19.258;2022-12-11T01:53:48;97466.91;;;-0.21;100.00
76406;BME280;65234;50.044;19.258;2022-12-11T01:56:16;97464.59;;;-0.19;100.00
76406;BME280;65234;50.044;19.258;2022-12-11T01:58:46;97459.22;;;-0.15;100.00
76406;BME280;65234;50.044;19.258;2022-12-11T02:01:17;97464.25;;;-0.17;100.00
76406;BME280;65234;50.044;19.258;2022-12-11T02:03:45;97459.47;;;-0.24;100.00
76406;BME280;65234;50.044;19.258;2022-12-11T02:09:12;97466.00;;;-0.28;100.00
76406;BME280;65234;50.044;19.258;2022-12-11T02:11:46;97467.47;;;-0.31;100.00
76406;BME280;65234;50.044;19.258;2022-12-11T02:14:21;97457.03;;;-0.29;100.00
76406;BME280;65234;50.044;19.258;2022-12-11T02:16:54;97461.25;;;-0.31;100.00
76406;BME280;65234;50.044;19.258;2022-12-11T02:19:40;97470.56;;;-0.32;100.00
76406;BME280;65234;50.044;19.258;2022-12-11T02:22:12;97473.63;;;-0.34;100.00
76406;BME280;65234;50.044;19.258;2022-12-11T02:24:55;97461.25;;;-0.31;100.00
76406;BME280;65234;50.044;19.258;2022-12-11T02:27:35;97464.69;;;-0.34;100.00
76406;BME280;65234;50.044;19.258;2022-12-11T02:30:04;97464.28;;;-0.36;100.00
76406;BME280;65234;50.044;19.258;2022-12-11T02:32:34;97464.19;;;-0.40;100.00
76406;BME280;65234;50.044;19.258;2022-12-11T02:35:06;97466.53;;;-0.38;100.00
76406;BME280;65234;50.044;19.258;2022-12-11T02:37:36;97460.25;;;-0.42;100.00
76406;BME280;65234;50.044;19.258;2022-12-11T02:40:06;97451.66;;;-0.44;100.00
76406;BME280;65234;50.044;19.258;2022-12-11T02:42:34;97449.34;;;-0.42;100.00
76406;BME280;65234;50.044;19.258;2022-12-11T02:45:04;97459.09;;;-0.41;100.00
76406;BME280;65234;50.044;19.258;2022-12-11T02:47:32;97444.78;;;-0.38;100.00
76406;BME280;65234;50.044;19.258;2022-12-11T02:49:59;97442.00;;;-0.42;100.00
76406;BME280;65234;50.044;19.258;2022-12-11T02:52:27;97434.22;;;-0.43;100.00
76406;BME280;65234;50.044;19.258;2022-12-11T02:54:56;97441.50;;;-0.47;100.00
76406;BME280;65234;50.044;19.258;2022-12-11T02:57:27;97440.34;;;-0.47;100.00
76406;BME280;65234;50.044;19.258;2022-12-11T02:59:55;97439.66;;;-0.43;100.00
76406;BME280;65234;50.044;19.258;2022-12-11T03:02:22;97443.44;;;-0.48;100.00
76406;BME280;65234;50.044;19.258;2022-12-11T03:04:48;97430.63;;;-0.47;100.00
76406;BME280;65234;50.044;19.258;2022-12-11T03:07:16;97430.19;;;-0.50;100.00
76406;BME280;65234;50.044;19.258;2022-12-11T03:09:45;97432.97;;;-0.46;100.00
76406;BME280;65234;50.044;19.258;2022-12-11T03:12:14;97437.19;;;-0.49;100.00
76406;BME280;65234;50.044;19.258;2022-12-11T03:14:42;97437.56;;;-0.50;100.00
76406;BME280;65234;50.044;19.258;2022-12-11T03:17:14;97441.50;;;-0.47;100.00
76406;BME280;65234;50.044;19.258;2022-12-11T03:19:46;97440.34;;;-0.47;100.00
76406;BME280;65234;50.044;19.258;2022-12-11T03:22:16;97442.72;;;-0.45;100.00
76406;BME280;65234;50.044;19.258;2022-12-11T03:24:45;97437.63;;;-0.47;100.00
76406;BME280;65234;50.044;19.258;2022-12-11T03:27:17;97430.63;;;-0.47;100.00
76406;BME280;65234;50.044;19.258;2022-12-11T03:29:51;97431.31;;;-0.51;100.00
76406;BME280;65234;50.044;19.258;2022-12-11T03:32:21;97435.09;;;-0.55;100.00
76406;BME280;65234;50.044;19.258;2022-12-11T03:34:53;97427.66;;;-0.58;100.00
76406;BME280;65234;50.044;19.258;2022-12-11T03:37:22;97421.09;;;-0.57;100.00
76406;BME280;65234;50.044;19.258;2022-12-11T03:39:53;97424.59;;;-0.57;100.00
76406;BME280;65234;50.044;19.258;2022-12-11T03:42:21;97408.56;;;-0.62;100.00
76406;BME280;65234;50.044;19.258;2022-12-11T03:44:49;97412.41;;;-0.63;100.00
76406;BME280;65234;50.044;19.258;2022-12-11T03:47:20;97417.00;;;-0.67;100.00
76406;BME280;65234;50.044;19.258;2022-12-11T03:49:47;97419.03;;;-0.64;100.00
76406;BME280;65234;50.044;19.258;2022-12-11T03:52:16;97408.41;;;-0.69;100.00
76406;BME280;65234;50.044;19.258;2022-12-11T03:54:45;97422.44;;;-0.67;100.00
76406;BME280;65234;50.044;19.258;2022-12-11T03:57:14;97418.56;;;-0.66;100.00
76406;BME280;65234;50.044;19.258;2022-12-11T03:59:41;97410.78;;;-0.67;100.00
76406;BME280;65234;50.044;19.258;2022-12-11T04:02:06;97417.44;;;-0.65;100.00
76406;BME280;65234;50.044;19.258;2022-12-11T04:04:32;97415.06;;;-0.66;100.00
76406;BME280;65234;50.044;19.258;2022-12-11T04:06:58;97417.44;;;-0.65;100.00
76406;BME280;65234;50.044;19.258;2022-12-11T04:09:25;97412.34;;;-0.66;100.00
76406;BME280;65234;50.044;19.258;2022-12-11T04:11:51;97407.69;;;-0.66;100.00
76406;BME280;65234;50.044;19.258;2022-12-11T04:14:16;97410.41;;;-0.66;100.00
76406;BME280;65234;50.044;19.258;2022-12-11T04:16:42;97412.41;;;-0.63;100.00
76406;BME280;65234;50.044;19.258;2022-12-11T04:19:08;97405.84;;;-0.62;100.00
76406;BME280;65234;50.044;19.258;2022-12-11T04:21:34;97407.84;;;-0.59;100.00
76406;BME280;65234;50.044;19.258;2022-12-11T04:24:00;97411.00;;;-0.57;100.00
76406;BME280;65234;50.044;19.258;2022-12-11T04:26:27;97411.41;;;-0.55;100.00
76406;BME280;65234;50.044;19.258;2022-12-11T04:28:53;97407.03;;;-0.59;100.00
76406;BME280;65234;50.044;19.258;2022-12-11T04:31:20;97407.91;;;-0.55;100.00
76406;BME280;65234;50.044;19.258;2022-12-11T04:33:47;97412.88;;;-0.61;100.00
76406;BME280;65234;50.044;19.258;2022-12-11T04:36:13;97404.69;;;-0.61;100.00
76406;BME280;65234;50.044;19.258;2022-12-11T04:38:39;97395.25;;;-0.67;100.00
76406;BME280;65234;50.044;19.258;2022-12-11T04:41:07;97391.38;;;-0.66;100.00
76406;BME280;65234;50.044;19.258;2022-12-11T04:43:35;97404.63;;;-0.64;100.00
76406;BME280;65234;50.044;19.258;2022-12-11T04:46:02;97394.47;;;-0.67;100.00
76406;BME280;65234;50.044;19.258;2022-12-11T04:48:28;97399.91;;;-0.67;100.00
76406;BME280;65234;50.044;19.258;2022-12-11T04:50:53;97402.97;;;-0.69;100.00
76406;BME280;65234;50.044;19.258;2022-12-11T04:53:19;97395.25;;;-0.67;100.00
76406;BME280;65234;50.044;19.258;2022-12-11T04:55:45;97393.63;;;-0.71;100.00
76406;BME280;65234;50.044;19.258;2022-12-11T04:58:11;97392.53;;;-0.67;100.00
76406;BME280;65234;50.044;19.258;2022-12-11T05:00:39;97399.19;;;-0.64;100.00
76406;BME280;65234;50.044;19.258;2022-12-11T05:03:05;97394.19;;;-0.62;100.00
76406;BME280;65234;50.044;19.258;2022-12-11T05:05:30;97396.81;;;-0.66;100.00
76406;BME280;65234;50.044;19.258;2022-12-11T05:07:56;97396.81;;;-0.66;100.00
76406;BME280;65234;50.044;19.258;2022-12-11T05:10:22;97386.66;;;-0.69;100.00
76406;BME280;65234;50.044;19.258;2022-12-11T05:12:47;97391.38;;;-0.66;100.00
76406;BME280;65234;50.044;19.258;2022-12-11T05:15:13;97389.81;;;-0.67;100.00
76406;BME280;65234;50.044;19.258;2022-12-11T05:17:40;97381.94;;;-0.72;100.00
76406;BME280;65234;50.044;19.258;2022-12-11T05:20:07;97383.38;;;-0.78;100.00
76406;BME280;65234;50.044;19.258;2022-12-11T05:22:33;97379.50;;;-0.77;100.00
76406;BME280;65234;50.044;19.258;2022-12-11T05:24:58;97377.94;;;-0.78;100.00
76406;BME280;65234;50.044;19.258;2022-12-11T05:27:24;97374.00;;;-0.80;100.00
76406;BME280;65234;50.044;19.258;2022-12-11T05:29:50;97389.88;;;-0.82;100.00
76406;BME280;65234;50.044;19.258;2022-12-11T05:32:16;97383.22;;;-0.85;100.00
76406;BME280;65234;50.044;19.258;2022-12-11T05:34:43;97388.66;;;-0.85;100.00
76406;BME280;65234;50.044;19.258;2022-12-11T05:37:09;97385.22;;;-0.82;100.00
76406;BME280;65234;50.044;19.258;2022-12-11T05:39:34;97387.94;;;-0.82;100.00
76406;BME280;65234;50.044;19.258;2022-12-11T05:42:00;97385.59;;;-0.83;100.00
76406;BME280;65234;50.044;19.258;2022-12-11T05:44:26;97386.34;;;-0.83;100.00
76406;BME280;65234;50.044;19.258;2022-12-11T05:46:52;97382.50;;;-0.82;100.00
76406;BME280;65234;50.044;19.258;2022-12-11T05:49:17;97378.66;;;-0.81;100.00
76406;BME280;65234;50.044;19.258;2022-12-11T05:51:45;97381.72;;;-0.82;100.00
76406;BME280;65234;50.044;19.258;2022-12-11T05:54:10;97382.16;;;-0.80;100.00
76406;BME280;65234;50.044;19.258;2022-12-11T05:56:36;97381.38;;;-0.81;100.00
76406;BME280;65234;50.044;19.258;2022-12-11T05:59:04;97369.22;;;-0.87;100.00
76406;BME280;65234;50.044;19.258;2022-12-11T06:01:32;97372.63;;;-0.90;100.00
76406;BME280;65234;50.044;19.258;2022-12-11T06:03:58;97378.44;;;-0.91;100.00
76406;BME280;65234;50.044;19.258;2022-12-11T06:06:25;97377.66;;;-0.92;100.00
76406;BME280;65234;50.044;19.258;2022-12-11T06:08:53;97373.34;;;-0.93;100.00
76406;BME280;65234;50.044;19.258;2022-12-11T06:11:20;97379.06;;;-0.98;100.00
76406;BME280;65234;50.044;19.258;2022-12-11T06:13:46;97385.13;;;-1.05;100.00
76406;BME280;65234;50.044;19.258;2022-12-11T06:16:12;97380.50;;;-1.04;100.00
76406;BME280;65234;50.044;19.258;2022-12-11T06:18:40;97386.19;;;-1.09;100.00
76406;BME280;65234;50.044;19.258;2022-12-11T06:21:17;97389.34;;;-1.07;100.00
76406;BME280;65234;50.044;19.258;2022-12-11T06:23:45;97385.78;;;-1.11;100.00
76406;BME280;65234;50.044;19.258;2022-12-11T06:26:13;97383.47;;;-1.09;100.00
76406;BME280;65234;50.044;19.258;2022-12-11T06:28:39;97388.13;;;-1.10;100.00
76406;BME280;65234;50.044;19.258;2022-12-11T06:31:05;97389.69;;;-1.09;100.00
76406;BME280;65234;50.044;19.258;2022-12-11T06:33:31;97401.78;;;-1.06;100.00
76406;BME280;65234;50.044;19.258;2022-12-11T06:36:00;97397.50;;;-1.07;100.00
76406;BME280;65234;50.044;19.258;2022-12-11T06:38:26;97402.50;;;-1.09;100.00
76406;BME280;65234;50.044;19.258;2022-12-11T06:40:54;97388.56;;;-1.08;100.00
76406;BME280;65234;50.044;19.258;2022-12-11T06:43:21;97396.56;;;-1.15;100.00
76406;BME280;65234;50.044;19.258;2022-12-11T06:45:47;97397.31;;;-1.14;100.00
76406;BME280;65234;50.044;19.258;2022-12-11T06:48:13;97402.94;;;-1.07;100.00
76406;BME280;65234;50.044;19.258;2022-12-11T06:50:38;97405.66;;;-1.07;100.00
76406;BME280;65234;50.044;19.258;2022-12-11T06:53:04;97400.66;;;-1.05;100.00
76406;BME280;65234;50.044;19.258;2022-12-11T06:55:30;97399.78;;;-1.09;100.00
76406;BME280;65234;50.044;19.258;2022-12-11T06:57:58;97405.22;;;-1.09;100.00
76406;BME280;65234;50.044;19.258;2022-12-11T07:00:26;97410.66;;;-1.09;100.00
76406;BME280;65234;50.044;19.258;2022-12-11T07:02:51;97398.13;;;-1.14;100.00
76406;BME280;65234;50.044;19.258;2022-12-11T07:05:17;97398.50;;;-1.15;100.00
76406;BME280;65234;50.044;19.258;2022-12-11T07:07:43;97399.34;;;-1.11;100.00
76406;BME280;65234;50.044;19.258;2022-12-11T07:10:09;97405.84;;;-1.16;100.00
76406;BME280;65234;50.044;19.258;2022-12-11T07:12:35;97413.28;;;-1.13;100.00
76406;BME280;65234;50.044;19.258;2022-12-11T07:15:01;97416.06;;;-1.09;100.00
76406;BME280;65234;50.044;19.258;2022-12-11T07:17:32;97420.00;;;-1.07;100.00
76406;BME280;65234;50.044;19.258;2022-12-11T07:19:58;97418.44;;;-1.08;100.00
76406;BME280;65234;50.044;19.258;2022-12-11T07:22:24;97433.25;;;-1.05;100.00
76406;BME280;65234;50.044;19.258;2022-12-11T07:24:50;97421.97;;;-1.07;100.00
76406;BME280;65234;50.044;19.258;2022-12-11T07:27:15;97428.09;;;-1.10;100.00
76406;BME280;65234;50.044;19.258;2022-12-11T07:29:41;97435.69;;;-1.00;100.00
76406;BME280;65234;50.044;19.258;2022-12-11T07:32:07;97428.59;;;-1.05;100.00
76406;BME280;65234;50.044;19.258;2022-12-11T07:34:35;97436.75;;;-1.05;100.00
76406;BME280;65234;50.044;19.258;2022-12-11T07:37:00;97434.91;;;-1.01;100.00
76406;BME280;65234;50.044;19.258;2022-12-11T07:39:26;97435.69;;;-1.00;100.00
76406;BME280;65234;50.044;19.258;2022-12-11T07:41:52;97445.72;;;-1.04;100.00
76406;BME280;65234;50.044;19.258;2022-12-11T07:44:18;97445.63;;;-1.08;100.00
76406;BME280;65234;50.044;19.258;2022-12-11T07:46:44;97442.53;;;-1.06;100.00
76406;BME280;65234;50.044;19.258;2022-12-11T07:49:10;97432.84;;;-1.07;100.00
76406;BME280;65234;50.044;19.258;2022-12-11T07:51:37;97438.69;;;-1.05;100.00
76406;BME280;65234;50.044;19.258;2022-12-11T07:54:04;97437.91;;;-1.06;100.00
76406;BME280;65234;50.044;19.258;2022-12-11T07:56:31;97440.53;;;-1.09;100.00
76406;BME280;65234;50.044;19.258;2022-12-11T07:58:58;97437.09;;;-1.06;100.00
76406;BME280;65234;50.044;19.258;2022-12-11T08:01:26;97430.97;;;-1.03;100.00
76406;BME280;65234;50.044;19.258;2022-12-11T08:03:52;97437.47;;;-1.08;100.00
76406;BME280;65234;50.044;19.258;2022-12-11T08:06:18;97440.53;;;-1.09;100.00
76406;BME280;65234;50.044;19.258;2022-12-11T08:08:46;97436.53;;;-1.15;100.00
76406;BME280;65234;50.044;19.258;2022-12-11T08:11:13;97442.84;;;-1.11;100.00
76406;BME280;65234;50.044;19.258;2022-12-11T08:13:40;97437.19;;;-1.03;100.00
76406;BME280;65234;50.044;19.258;2022-12-11T08:16:07;97444.13;;;-1.05;100.00
76406;BME280;65234;50.044;19.258;2022-12-11T08:18:34;97434.13;;;-1.01;100.00
76406;BME280;65234;50.044;19.258;2022-12-11T08:21:04;97423.97;;;-1.04;100.00
76406;BME280;65234;50.044;19.258;2022-12-11T08:23:29;97445.34;;;-1.03;100.00
76406;BME280;65234;50.044;19.258;2022-12-11T08:25:56;97445.72;;;-1.04;100.00
76406;BME280;65234;50.044;19.258;2022-12-11T08:28:22;97435.34;;;-0.99;100.00
76406;BME280;65234;50.044;19.258;2022-12-11T08:30:48;97439.81;;;-1.06;100.00
76406;BME280;65234;50.044;19.258;2022-12-11T08:33:14;97446.03;;;-1.06;100.00
76406;BME280;65234;50.044;19.258;2022-12-11T08:35:41;97439.41;;;-1.08;100.00
76406;BME280;65234;50.044;19.258;2022-12-11T08:38:07;97442.53;;;-1.06;100.00
76406;BME280;65234;50.044;19.258;2022-12-11T08:40:32;97443.25;;;-1.09;100.00
76406;BME280;65234;50.044;19.258;2022-12-11T08:43:00;97441.94;;;-1.00;100.00
76406;BME280;65234;50.044;19.258;2022-12-11T08:45:25;97438.28;;;-1.07;100.00
76406;BME280;65234;50.044;19.258;2022-12-11T08:47:52;97443.31;;;-1.06;100.00
76406;BME280;65234;50.044;19.258;2022-12-11T08:50:18;97444.84;;;-1.08;100.00
76406;BME280;65234;50.044;19.258;2022-12-11T08:52:44;97449.22;;;-1.04;100.00
76406;BME280;65234;50.044;19.258;2022-12-11T08:55:10;97449.56;;;-1.05;100.00
76406;BME280;65234;50.044;19.258;2022-12-11T08:57:36;97452.28;;;-1.05;100.00
76406;BME280;65234;50.044;19.258;2022-12-11T09:00:04;97457.38;;;-1.04;100.00
76406;BME280;65234;50.044;19.258;2022-12-11T09:02:30;97456.34;;;-1.15;100.00
76406;BME280;65234;50.044;19.258;2022-12-11T09:04:56;97449.25;;;-1.19;100.00
76406;BME280;65234;50.044;19.258;2022-12-11T09:07:22;97443.09;;;-1.16;100.00
76406;BME280;65234;50.044;19.258;2022-12-11T09:09:47;97449.31;;;-1.16;100.00
76406;BME280;65234;50.044;19.258;2022-12-11T09:12:13;97436.88;;;-1.17;100.00
76406;BME280;65234;50.044;19.258;2022-12-11T09:14:39;97441.50;;;-1.17;100.00
76406;BME280;65234;50.044;19.258;2022-12-11T09:17:06;97442.13;;;-1.08;100.00
76406;BME280;65234;50.044;19.258;2022-12-11T09:19:32;97436.75;;;-1.05;100.00
76406;BME280;65234;50.044;19.258;2022-12-11T09:21:58;97435.69;;;-1.00;100.00
76406;BME280;65234;50.044;19.258;2022-12-11T09:24:23;97431.25;;;-1.08;100.00
76406;BME280;65234;50.044;19.258;2022-12-11T09:26:49;97427.66;;;-1.12;100.00
76406;BME280;65234;50.044;19.258;2022-12-11T09:29:15;97433.09;;;-1.12;100.00
76406;BME280;65234;50.044;19.258;2022-12-11T09:31:41;97427.75;;;-1.09;100.00
76406;BME280;65234;50.044;19.258;2022-12-11T09:34:11;97425.81;;;-1.08;100.00
76406;BME280;65234;50.044;19.258;2022-12-11T09:36:38;97437.03;;;-1.10;100.00
76406;BME280;65234;50.044;19.258;2022-12-11T09:39:06;97440.78;;;-1.14;100.00
76406;BME280;65234;50.044;19.258;2022-12-11T09:41:35;97442.75;;;-1.15;100.00
76406;BME280;65234;50.044;19.258;2022-12-11T09:44:11;97446.41;;;-1.07;100.00
76406;BME280;65234;50.044;19.258;2022-12-11T09:46:41;97436.75;;;-1.05;100.00
76406;BME280;65234;50.044;19.258;2022-12-11T09:49:18;97440.34;;;-1.01;100.00
76406;BME280;65234;50.044;19.258;2022-12-11T09:51:50;97440.28;;;-1.04;100.00
76406;BME280;65234;50.044;19.258;2022-12-11T09:54:18;97440.19;;;-1.08;100.00
76406;BME280;65234;50.044;19.258;2022-12-11T09:56:48;97439.13;;;-1.03;100.00
76406;BME280;65234;50.044;19.258;2022-12-11T09:59:22;97432.63;;;-0.99;100.00
76406;BME280;65234;50.044;19.258;2022-12-11T10:01:58;97428.25;;;-1.03;100.00
76406;BME280;65234;50.044;19.258;2022-12-11T10:04:38;97422.72;;;-0.91;100.00
76406;BME280;65234;50.044;19.258;2022-12-11T10:07:11;97432.28;;;-0.97;100.00
76406;BME280;65234;50.044;19.258;2022-12-11T10:09:48;97435.13;;;-0.90;100.00
76406;BME280;65234;50.044;19.258;2022-12-11T10:12:27;97423.59;;;-0.87;100.00
76406;BME280;65234;50.044;19.258;2022-12-11T10:15:11;97430.97;;;-1.03;100.00
76406;BME280;65234;50.044;19.258;2022-12-11T10:17:40;97436.44;;;-1.19;100.00
76406;BME280;65234;50.044;19.258;2022-12-11T10:20:17;97432.06;;;-1.23;100.00
76406;BME280;65234;50.044;19.258;2022-12-11T10:22:45;97436.47;;;-1.34;100.00
76406;BME280;65234;50.044;19.258;2022-12-11T10:25:17;97427.59;;;-1.31;100.00
76406;BME280;65234;50.044;19.258;2022-12-11T10:27:43;97440.41;;;-1.32;100.00
76406;BME280;65234;50.044;19.258;2022-12-11T10:30:14;97431.47;;;-1.32;100.00
76406;BME280;65234;50.044;19.258;2022-12-11T10:32:49;97426.81;;;-1.32;100.00
76406;BME280;65234;50.044;19.258;2022-12-11T10:35:26;97432.16;;;-1.35;100.00
76406;BME280;65234;50.044;19.258;2022-12-11T10:37:55;97433.47;;;-1.29;100.00
76406;BME280;65234;50.044;19.258;2022-12-11T10:40:25;97435.22;;;-1.21;100.00
76406;BME280;65234;50.044;19.258;2022-12-11T10:42:54;97430.75;;;-1.29;100.00
76406;BME280;65234;50.044;19.258;2022-12-11T10:45:19;97437.50;;;-1.23;100.00
76406;BME280;65234;50.044;19.258;2022-12-11T10:47:45;97434.97;;;-1.32;100.00
76406;BME280;65234;50.044;19.258;2022-12-11T10:50:23;97432.09;;;-1.39;100.00
76406;BME280;65234;50.044;19.258;2022-12-11T10:52:50;97426.38;;;-1.50;100.00
76406;BME280;65234;50.044;19.258;2022-12-11T10:55:19;97427.78;;;-1.56;100.00
76406;BME280;65234;50.044;19.258;2022-12-11T10:57:53;97416.31;;;-1.49;100.00
76406;BME280;65234;50.044;19.258;2022-12-11T11:00:30;97413.00;;;-1.42;100.00
76406;BME280;65234;50.044;19.258;2022-12-11T11:02:57;97408.59;;;-1.31;100.00
76406;BME280;65234;50.044;19.258;2022-12-11T11:05:29;97403.16;;;-1.31;100.00
76406;BME280;65234;50.044;19.258;2022-12-11T11:08:02;97400.00;;;-1.33;100.00
76406;BME280;65234;50.044;19.258;2022-12-11T11:10:28;97398.78;;;-1.36;100.00
76406;BME280;65234;50.044;19.258;2022-12-11T11:12:59;97403.66;;;-1.26;100.00
76406;BME280;65234;50.044;19.258;2022-12-11T11:15:27;97405.88;;;-1.31;100.00
76406;BME280;65234;50.044;19.258;2022-12-11T11:17:55;97393.00;;;-1.34;100.00
76406;BME280;65234;50.044;19.258;2022-12-11T11:20:23;97388.09;;;-1.45;100.00
76406;BME280;65234;50.044;19.258;2022-12-11T11:23:07;97398.25;;;-1.42;100.00
76406;BME280;65234;50.044;19.258;2022-12-11T11:25:35;97403.16;;;-1.31;100.00
76406;BME280;65234;50.044;19.258;2022-12-11T11:28:03;97398.22;;;-1.26;100.00
76406;BME280;65234;50.044;19.258;2022-12-11T11:30:30;97395.72;;;-1.34;100.00
76406;BME280;65234;50.044;19.258;2022-12-11T11:33:02;97399.38;;;-1.27;100.00
76406;BME280;65234;50.044;19.258;2022-12-11T11:35:29;97406.13;;;-1.36;100.00
76406;BME280;65234;50.044;19.258;2022-12-11T11:38:00;97409.81;;;-1.45;100.00
76406;BME280;65234;50.044;19.258;2022-12-11T11:40:30;97400.09;;;-1.46;100.00
76406;BME280;65234;50.044;19.258;2022-12-11T11:43:02;97403.44;;;-1.36;100.00
76406;BME280;65234;50.044;19.258;2022-12-11T11:45:35;97402.72;;;-1.33;100.00
76406;BME280;65234;50.044;19.258;2022-12-11T11:48:12;97397.38;;;-1.46;100.00
76406;BME280;65234;50.044;19.258;2022-12-11T11:50:44;97390.00;;;-1.29;100.00
76406;BME280;65234;50.044;19.258;2022-12-11T11:53:13;97390.25;;;-1.19;100.00
76406;BME280;65234;50.044;19.258;2022-12-11T11:55:48;97399.97;;;-1.18;100.00
76406;BME280;65234;50.044;19.258;2022-12-11T11:58:19;97383.25;;;-1.20;100.00
76406;BME280;65234;50.044;19.258;2022-12-11T12:00:47;97391.16;;;-1.30;100.00
76406;BME280;65234;50.044;19.258;2022-12-11T12:03:15;97384.94;;;-1.31;100.00
76406;BME280;65234;50.044;19.258;2022-12-11T12:05:49;97390.63;;;-1.36;100.00
76406;BME280;65234;50.044;19.258;2022-12-11T12:08:25;97388.00;;;-1.32;100.00
76406;BME280;65234;50.044;19.258;2022-12-11T12:10:59;97392.13;;;-1.38;100.00
76406;BME280;65234;50.044;19.258;2022-12-11T12:13:29;97384.94;;;-1.31;100.00
76406;BME280;65234;50.044;19.258;2022-12-11T12:15:58;97385.38;;;-1.45;100.00
76406;BME280;65234;50.044;19.258;2022-12-11T12:18:34;97384.97;;;-1.47;100.00
76406;BME280;65234;50.044;19.258;2022-12-11T12:21:12;97379.34;;;-1.54;100.00
76406;BME280;65234;50.044;19.258;2022-12-11T12:23:50;97381.47;;;-1.63;100.00
76406;BME280;65234;50.044;19.258;2022-12-11T12:26:26;97379.19;;;-1.61;100.00
76406;BME280;65234;50.044;19.258;2022-12-11T12:29:01;97373.84;;;-1.57;100.00
76406;BME280;65234;50.044;19.258;2022-12-11T12:31:40;97378.94;;;-1.56;100.00
76406;BME280;65234;50.044;19.258;2022-12-11T12:34:16;97379.34;;;-1.54;100.00
76406;BME280;65234;50.044;19.258;2022-12-11T12:36:55;97384.00;;;-1.54;100.00
76406;BME280;65234;50.044;19.258;2022-12-11T12:39:30;97390.22;;;-1.54;100.00
76406;BME280;65234;50.044;19.258;2022-12-11T12:42:06;97398.97;;;-1.45;100.00
76406;BME280;65234;50.044;19.258;2022-12-11T12:44:41;97397.56;;;-1.38;100.00
76406;BME280;65234;50.044;19.258;2022-12-11T12:47:12;97398.25;;;-1.42;100.00
76406;BME280;65234;50.044;19.258;2022-12-11T12:49:41;97407.44;;;-1.46;100.00